Time;durP1;ratioP1;P1;durP2;ratioP2;P2;SDS_P1;SDS_P2;PMS_P1;PMS_P2;Temp;Humidity;BMP_temperature;BMP_pressure;BME280_temperature;BME280_humidity;BME280_pressure;Samples;Min_cycle;Max_cycle;Signal;HPM_P1;HPM_P2
2021/06/06 00:02:41;;;;;;;;;;;;;;;15.52;100.00;101001.31;5018704;28;20401;-66
2021/06/06 00:05:32;;;;;;;;;;;;;;;15.52;100.00;101000.50;5018959;28;20067;-65
2021/06/06 00:08:16;;;;;;;;;;;;;;;15.49;100.00;101006.19;5033616;28;19935;-67
2021/06/06 00:11:07;;;;;;;;;;;;;;;15.46;100.00;101006.47;5018584;28;19924;-67
2021/06/06 00:13:51;;;;;;;;;;;;;;;15.36;100.00;100997.69;5018984;28;19935;-66
2021/06/06 00:16:37;;;;;;;;;;;;;;;15.40;100.00;101007.94;5033820;28;19919;-66
2021/06/06 00:19:22;;;;;;;;;;;;;;;15.39;100.00;101006.28;5018780;28;20329;-66
2021/06/06 00:22:06;;;;;;;;;;;;;;;15.34;100.00;100992.47;5004920;28;20054;-66
2021/06/06 00:24:50;;;;;;;;;;;;;;;15.38;100.00;100992.97;5018801;28;20385;-65
2021/06/06 00:27:34;;;;;;;;;;;;;;;15.34;100.00;101003.22;5018761;28;19959;-66
2021/06/06 00:30:18;;;;;;;;;;;;;;;15.28;100.00;101001.13;5018349;28;19971;-65
2021/06/06 00:33:02;;;;;;;;;;;;;;;15.29;100.00;101007.34;5018422;28;19920;-65
2021/06/06 00:35:46;;;;;;;;;;;;;;;15.29;100.00;100999.28;5033333;28;19962;-65
2021/06/06 00:38:30;;;;;;;;;;;;;;;15.28;100.00;100997.56;5033293;28;19971;-65
2021/06/06 00:41:14;;;;;;;;;;;;;;;15.24;100.00;101002.44;5033789;28;19995;-65
2021/06/06 00:43:58;;;;;;;;;;;;;;;15.19;100.00;100999.38;5018596;28;20019;-65
2021/06/06 00:46:42;;;;;;;;;;;;;;;15.20;100.00;100997.53;5018594;28;19970;-66
2021/06/06 00:49:26;;;;;;;;;;;;;;;15.19;100.00;100998.53;5018386;28;19971;-66
2021/06/06 00:52:11;;;;;;;;;;;;;;;15.22;100.00;101007.09;5018544;28;20380;-66
2021/06/06 00:54:54;;;;;;;;;;;;;;;15.21;100.00;101001.91;5004640;28;19923;-66
2021/06/06 00:57:38;;;;;;;;;;;;;;;15.13;100.00;101005.38;5004321;28;19994;-67
2021/06/06 01:00:28;;;;;;;;;;;;;;;15.12;100.00;101009.03;5018129;28;19963;-66
2021/06/06 01:03:13;;;;;;;;;;;;;;;15.11;100.00;101001.16;5036593;28;19939;-66
2021/06/06 01:06:02;;;;;;;;;;;;;;;15.08;100.00;100998.78;5022154;28;20389;-65
2021/06/06 01:08:46;;;;;;;;;;;;;;;15.12;100.00;101000.16;5037111;28;19919;-66
2021/06/06 01:11:33;;;;;;;;;;;;;;;15.14;100.00;101003.53;5021825;28;19924;-66
2021/06/06 01:14:17;;;;;;;;;;;;;;;15.12;100.00;101008.22;5036737;28;19920;-67
2021/06/06 01:17:05;;;;;;;;;;;;;;;15.04;100.00;101000.94;5036666;28;19975;-67
2021/06/06 01:19:50;;;;;;;;;;;;;;;15.05;100.00;100993.72;5008156;28;19920;-67
2021/06/06 01:22:46;;;;;;;;;;;;;;;15.06;100.00;100990.88;5007990;28;20286;-66
2021/06/06 01:25:31;;;;;;;;;;;;;;;15.09;100.00;100992.41;5037118;28;19920;-66
2021/06/06 01:28:38;;;;;;;;;;;;;;;15.12;100.00;100998.28;5021480;28;19920;-66
2021/06/06 01:31:22;;;;;;;;;;;;;;;15.13;100.00;100988.41;5021268;28;19924;-65
2021/06/06 01:34:06;;;;;;;;;;;;;;;15.10;100.00;100999.47;5021516;28;19920;-67
2021/06/06 01:36:51;;;;;;;;;;;;;;;15.06;100.00;100993.56;5021944;28;19960;-66
2021/06/06 01:39:37;;;;;;;;;;;;;;;15.05;100.00;100980.28;5007883;28;19920;-66
2021/06/06 01:42:31;;;;;;;;;;;;;;;15.08;100.00;100986.19;5021451;28;19935;-66
2021/06/06 01:45:17;;;;;;;;;;;;;;;15.09;100.00;100977.13;5021464;28;19936;-67
2021/06/06 01:48:01;;;;;;;;;;;;;;;15.10;100.00;100983.34;5021388;28;19920;-66
2021/06/06 01:50:47;;;;;;;;;;;;;;;15.11;100.00;100985.03;5020975;28;19924;-66
2021/06/06 01:53:31;;;;;;;;;;;;;;;15.11;100.00;100980.50;5020998;28;19967;-67
2021/06/06 01:56:20;;;;;;;;;;;;;;;15.12;100.00;100984.03;5035921;28;20015;-67
2021/06/06 01:59:08;;;;;;;;;;;;;;;15.12;100.00;100978.66;5021118;28;19977;-66
2021/06/06 02:01:52;;;;;;;;;;;;;;;15.15;100.00;100973.84;5020837;28;20002;-67
2021/06/06 02:04:36;;;;;;;;;;;;;;;15.12;100.00;100979.50;5036085;28;19939;-67
2021/06/06 02:07:30;;;;;;;;;;;;;;;15.12;100.00;100981.34;5021029;28;19967;-67
2021/06/06 02:10:17;;;;;;;;;;;;;;;15.10;100.00;100978.00;5020693;28;19924;-67
2021/06/06 02:13:03;;;;;;;;;;;;;;;15.05;100.00;100970.41;5035027;28;20420;-66
2021/06/06 02:15:47;;;;;;;;;;;;;;;15.10;100.00;100972.63;5020957;28;19963;-66
2021/06/06 02:18:31;;;;;;;;;;;;;;;15.09;100.00;100976.31;5020565;28;19999;-68
2021/06/06 02:21:16;;;;;;;;;;;;;;;15.11;100.00;100979.66;5007127;28;19920;-67
2021/06/06 02:24:00;;;;;;;;;;;;;;;15.11;100.00;100966.25;5006608;28;19936;-66
2021/06/06 02:26:47;;;;;;;;;;;;;;;15.09;100.00;100977.13;5006810;28;20409;-66
2021/06/06 02:29:49;;;;;;;;;;;;;;;15.12;100.00;100970.63;5020068;28;20397;-66
2021/06/06 02:32:42;;;;;;;;;;;;;;;15.12;100.00;100963.38;5035503;28;20372;-66
2021/06/06 02:35:31;;;;;;;;;;;;;;;15.15;100.00;100970.28;5035459;28;19948;-66
2021/06/06 02:38:16;;;;;;;;;;;;;;;15.17;100.00;100968.28;5020124;28;20417;-66
2021/06/06 02:41:02;;;;;;;;;;;;;;;15.12;100.00;100970.63;5020150;28;19920;-66
2021/06/06 02:43:48;;;;;;;;;;;;;;;15.09;100.00;100977.13;5020287;28;19920;-66
2021/06/06 02:46:32;;;;;;;;;;;;;;;15.10;100.00;100967.25;5020060;28;19920;-67
2021/06/06 02:49:17;;;;;;;;;;;;;;;15.12;100.00;100967.94;5019826;28;19920;-67
2021/06/06 02:52:06;;;;;;;;;;;;;;;15.08;100.00;100970.06;5019897;28;20007;-66
2021/06/06 02:54:52;;;;;;;;;;;;;;;15.10;100.00;100967.25;5006081;28;19920;-66
2021/06/06 02:57:36;;;;;;;;;;;;;;;15.09;100.00;100963.69;5020091;28;20071;-67
2021/06/06 03:00:22;;;;;;;;;;;;;;;15.08;100.00;100962.03;5006149;28;19936;-67
2021/06/06 03:03:07;;;;;;;;;;;;;;;15.07;100.00;100967.53;5019976;28;19920;-64
2021/06/06 03:05:51;;;;;;;;;;;;;;;15.05;100.00;100962.34;5006359;28;19920;-66
2021/06/06 03:08:35;;;;;;;;;;;;;;;15.10;100.00;100962.69;5006058;28;20292;-66
2021/06/06 03:11:19;;;;;;;;;;;;;;;15.12;100.00;100959.88;5019460;28;19943;-66
2021/06/06 03:14:07;;;;;;;;;;;;;;;15.86;100.00;100968.06;5019818;28;20392;-66
2021/06/06 03:16:56;;;;;;;;;;;;;;;15.14;100.00;100963.25;5020364;28;19928;-66
2021/06/06 03:19:45;;;;;;;;;;;;;;;15.23;100.00;100964.97;5019880;28;19920;-66
2021/06/06 03:22:30;;;;;;;;;;;;;;;15.08;100.00;100964.69;5005509;28;20281;-66
2021/06/06 03:25:16;;;;;;;;;;;;;;;15.08;100.00;100958.50;5005252;28;19920;-66
2021/06/06 03:28:00;;;;;;;;;;;;;;;15.10;100.00;100968.06;5005654;28;19967;-66
2021/06/06 03:30:46;;;;;;;;;;;;;;;15.09;100.00;100970.94;5020435;28;20404;-66
2021/06/06 03:33:48;;;;;;;;;;;;;;;15.09;100.00;100969.06;5019193;28;19920;-67
2021/06/06 03:36:36;;;;;;;;;;;;;;;15.10;100.00;100968.06;5019430;28;19963;-66
2021/06/06 03:39:26;;;;;;;;;;;;;;;15.05;100.00;100964.16;5019040;28;19920;-67
2021/06/06 03:42:10;;;;;;;;;;;;;;;15.03;100.00;100966.16;5020066;28;19915;-66
2021/06/06 03:44:54;;;;;;;;;;;;;;;15.09;100.00;100969.06;5019321;28;20349;-67
2021/06/06 03:47:38;;;;;;;;;;;;;;;15.10;100.00;100967.25;5034426;28;20282;-68
2021/06/06 03:50:22;;;;;;;;;;;;;;;15.07;100.00;100962.16;5018934;28;19986;-67
2021/06/06 03:53:06;;;;;;;;;;;;;;;15.08;100.00;100971.94;5019188;28;19966;-65
2021/06/06 03:55:50;;;;;;;;;;;;;;;15.09;100.00;100962.88;5019147;28;19955;-67
2021/06/06 03:58:34;;;;;;;;;;;;;;;15.11;100.00;100963.56;5019102;28;20344;-67
2021/06/06 04:01:18;;;;;;;;;;;;;;;15.09;100.00;100960.19;5018786;28;19967;-67
2021/06/06 04:04:02;;;;;;;;;;;;;;;15.05;100.00;100969.53;5018772;28;19920;-66
2021/06/06 04:06:46;;;;;;;;;;;;;;;15.07;100.00;100967.53;5018731;28;19920;-67
2021/06/06 04:09:30;;;;;;;;;;;;;;;15.04;100.00;100960.66;4988181;28;19921;-67
2021/06/06 04:12:14;;;;;;;;;;;;;;;15.04;100.00;100957.13;5033874;28;19920;-67
2021/06/06 04:14:58;;;;;;;;;;;;;;;15.02;100.00;100964.50;5033538;28;20389;-67
2021/06/06 04:17:42;;;;;;;;;;;;;;;15.05;100.00;100958.78;5033527;28;20389;-66
2021/06/06 04:20:26;;;;;;;;;;;;;;;15.02;100.00;100964.50;5018608;28;20475;-67
2021/06/06 04:23:10;;;;;;;;;;;;;;;15.01;100.00;100968.19;5018949;28;19920;-67
2021/06/06 04:25:54;;;;;;;;;;;;;;;15.02;100.00;100959.94;5018835;28;19960;-67
2021/06/06 04:28:38;;;;;;;;;;;;;;;15.09;100.00;100958.34;5018776;28;20006;-67
2021/06/06 04:31:22;;;;;;;;;;;;;;;15.12;100.00;100959.88;5004377;28;19923;-66
2021/06/06 04:34:06;;;;;;;;;;;;;;;15.09;100.00;100954.81;5004888;28;19920;-67
2021/06/06 04:36:50;;;;;;;;;;;;;;;15.05;100.00;100956.13;5019468;28;19951;-66
2021/06/06 04:39:34;;;;;;;;;;;;;;;15.06;100.00;100952.44;5022704;28;19924;-68
2021/06/06 04:42:21;;;;;;;;;;;;;;;15.07;100.00;100956.78;5022353;28;19955;-66
2021/06/06 04:45:05;;;;;;;;;;;;;;;15.06;100.00;100960.47;5023233;28;20393;-66
2021/06/06 04:47:49;;;;;;;;;;;;;;;15.10;100.00;100957.34;5022624;28;19919;-66
2021/06/06 04:50:33;;;;;;;;;;;;;;;15.13;100.00;100961.56;5037030;28;20070;-67
2021/06/06 04:53:17;;;;;;;;;;;;;;;15.14;100.00;100956.03;5037455;28;19920;-67
2021/06/06 04:56:01;;;;;;;;;;;;;;;15.12;100.00;100955.31;5022691;28;20365;-67
2021/06/06 04:58:45;;;;;;;;;;;;;;;15.11;100.00;100947.44;5022070;28;19924;-66
2021/06/06 05:01:31;;;;;;;;;;;;;;;15.10;100.00;100951.13;5008383;28;19920;-67
2021/06/06 05:04:15;;;;;;;;;;;;;;;15.15;100.00;100951.50;5022511;28;20397;-67
2021/06/06 05:06:58;;;;;;;;;;;;;;;15.19;100.00;100955.56;5021882;28;19939;-67
2021/06/06 05:09:42;;;;;;;;;;;;;;;15.16;100.00;100955.84;5036976;28;19928;-67
2021/06/06 05:12:26;;;;;;;;;;;;;;;15.18;100.00;100953.84;5036796;28;19963;-67
2021/06/06 05:15:10;;;;;;;;;;;;;;;15.22;100.00;100955.25;5007878;28;19978;-67
2021/06/06 05:17:55;;;;;;;;;;;;;;;15.27;100.00;100958.28;5037239;28;20370;-67
2021/06/06 05:20:40;;;;;;;;;;;;;;;15.31;100.00;100957.84;5021812;28;20321;-67
2021/06/06 05:23:25;;;;;;;;;;;;;;;15.39;100.00;100957.09;5036801;28;19959;-67
2021/06/06 05:26:09;;;;;;;;;;;;;;;15.42;100.00;100954.91;5021541;28;20477;-67
2021/06/06 05:28:53;;;;;;;;;;;;;;;15.49;100.00;100960.50;5021761;28;19920;-67
2021/06/06 05:31:37;;;;;;;;;;;;;;;15.50;100.00;100963.00;5007738;28;19924;-67
2021/06/06 05:34:20;;;;;;;;;;;;;;;15.43;100.00;100964.63;5021641;28;20384;-67
2021/06/06 05:37:05;;;;;;;;;;;;;;;15.46;100.00;100963.50;5021717;28;20412;-67
2021/06/06 05:39:49;;;;;;;;;;;;;;;15.45;100.00;100964.50;5021669;28;20006;-68
2021/06/06 05:42:33;;;;;;;;;;;;;;;15.49;100.00;100957.81;5021655;28;20278;-65
2021/06/06 05:45:18;;;;;;;;;;;;;;;15.53;100.00;100961.88;5021533;28;20004;-68
2021/06/06 05:48:02;;;;;;;;;;;;;;;15.49;100.00;100963.19;5006781;28;19963;-66
2021/06/06 05:50:47;;;;;;;;;;;;;;;15.54;100.00;100964.41;5020756;28;20055;-67
2021/06/06 05:53:35;;;;;;;;;;;;;;;15.54;100.00;100971.59;5008700;28;20326;-67
2021/06/06 05:56:19;;;;;;;;;;;;;;;15.45;100.00;100964.50;5021096;28;19948;-67
2021/06/06 05:59:02;;;;;;;;;;;;;;;15.45;100.00;100961.81;5020278;28;20381;-67
2021/06/06 06:01:46;;;;;;;;;;;;;;;15.49;100.00;100973.94;5020826;28;19920;-67
2021/06/06 06:04:30;;;;;;;;;;;;;;;15.57;100.00;100971.28;5020432;28;20398;-67
2021/06/06 06:07:15;;;;;;;;;;;;;;;15.63;100.00;100976.84;5020123;28;19979;-67
2021/06/06 06:09:59;;;;;;;;;;;;;;;15.58;100.00;100981.88;5020476;28;19962;-67
2021/06/06 06:12:43;;;;;;;;;;;;;;;15.54;100.00;100976.97;5035250;28;20019;-67
2021/06/06 06:15:27;;;;;;;;;;;;;;;15.57;100.00;100978.34;5020064;28;19966;-66
2021/06/06 06:18:11;;;;;;;;;;;;;;;15.54;100.00;100976.97;5020200;28;19924;-66
2021/06/06 06:20:55;;;;;;;;;;;;;;;15.52;100.00;100979.81;5019836;28;19994;-66
2021/06/06 06:23:38;;;;;;;;;;;;;;;15.54;100.00;100974.28;5020232;28;19963;-67
2021/06/06 06:26:23;;;;;;;;;;;;;;;15.56;100.00;100980.34;5019960;28;19935;-67
2021/06/06 06:29:07;;;;;;;;;;;;;;;15.58;100.00;100980.03;5019763;28;19974;-67
2021/06/06 06:31:51;;;;;;;;;;;;;;;15.54;100.00;100982.34;5019666;28;19924;-67
2021/06/06 06:34:35;;;;;;;;;;;;;;;15.50;100.00;100987.19;5006025;28;19955;-67
2021/06/06 06:37:20;;;;;;;;;;;;;;;15.54;100.00;100979.66;5019731;28;19920;-67
2021/06/06 06:40:06;;;;;;;;;;;;;;;15.48;100.00;100985.66;5019665;28;20049;-67
2021/06/06 06:42:49;;;;;;;;;;;;;;;15.47;100.00;100983.97;5019444;28;20341;-67
2021/06/06 06:45:35;;;;;;;;;;;;;;;15.50;100.00;100986.38;5019695;28;19940;-67
2021/06/06 06:48:20;;;;;;;;;;;;;;;15.54;100.00;100993.09;5019425;28;19920;-67
2021/06/06 06:51:04;;;;;;;;;;;;;;;15.56;100.00;100994.63;5005281;28;19967;-68
2021/06/06 06:53:49;;;;;;;;;;;;;;;15.64;100.00;100994.69;5019263;28;19963;-67
2021/06/06 06:56:33;;;;;;;;;;;;;;;15.61;100.00;100995.00;5019568;28;19920;-66
2021/06/06 06:59:17;;;;;;;;;;;;;;;15.68;100.00;100996.88;5018845;28;20376;-67
2021/06/06 07:02:03;;;;;;;;;;;;;;;15.69;100.00;101000.41;5019329;28;19963;-67
2021/06/06 07:04:47;;;;;;;;;;;;;;;15.77;100.00;100995.91;5005360;28;19920;-64
2021/06/06 07:07:31;;;;;;;;;;;;;;;15.79;100.00;100988.56;5034072;28;20377;-67
2021/06/06 07:10:16;;;;;;;;;;;;;;;15.83;100.00;100995.28;5005021;28;20407;-67
2021/06/06 07:13:00;;;;;;;;;;;;;;;15.91;100.00;101002.56;5019086;28;20289;-67
2021/06/06 07:15:44;;;;;;;;;;;;;;;15.92;100.00;101001.53;5019198;28;19920;-67
2021/06/06 07:18:28;;;;;;;;;;;;;;;15.97;100.00;101002.75;5019266;28;19962;-67
2021/06/06 07:21:13;;;;;;;;;;;;;;;15.97;100.00;101001.94;5018626;28;19920;-67
2021/06/06 07:23:57;;;;;;;;;;;;;;;15.91;100.00;101006.09;5033569;28;19919;-67
2021/06/06 07:26:43;;;;;;;;;;;;;;;15.93;100.00;100996.03;5033868;28;19920;-67
2021/06/06 07:29:27;;;;;;;;;;;;;;;15.97;100.00;101002.75;5018441;28;20344;-67
2021/06/06 07:32:11;;;;;;;;;;;;;;;16.08;100.00;101002.47;5004880;28;19920;-67
2021/06/06 07:34:55;;;;;;;;;;;;;;;16.05;100.00;101010.88;5033481;28;20006;-67
2021/06/06 07:37:39;;;;;;;;;;;;;;;16.17;100.00;101017.63;5033807;28;20377;-67
2021/06/06 07:40:24;;;;;;;;;;;;;;;16.07;100.00;101011.53;5004778;28;20039;-66
2021/06/06 07:43:08;;;;;;;;;;;;;;;16.05;100.00;101010.88;5018350;28;19940;-67
2021/06/06 07:45:52;;;;;;;;;;;;;;;16.14;100.00;101015.28;5018343;28;19959;-67
2021/06/06 07:48:35;;;;;;;;;;;;;;;16.20;100.00;101014.66;5018555;28;19920;-67
2021/06/06 07:51:22;;;;;;;;;;;;;;;16.15;100.00;101014.28;5018385;28;20266;-67
2021/06/06 07:54:06;;;;;;;;;;;;;;;16.16;100.00;101007.88;5018779;28;19944;-67
2021/06/06 07:56:49;;;;;;;;;;;;;;;16.11;100.00;101015.63;5033362;28;19920;-67
2021/06/06 07:59:34;;;;;;;;;;;;;;;16.15;100.00;101016.97;5004278;28;19920;-67
2021/06/06 08:02:18;;;;;;;;;;;;;;;16.18;100.00;101005.88;5018633;28;19985;-67
2021/06/06 08:05:03;;;;;;;;;;;;;;;16.16;100.00;101009.75;5033313;28;19924;-67
2021/06/06 08:07:47;;;;;;;;;;;;;;;16.12;100.00;101019.13;5017993;28;20293;-67
2021/06/06 08:10:31;;;;;;;;;;;;;;;16.22;100.00;101011.78;5017908;28;19940;-67
2021/06/06 08:13:15;;;;;;;;;;;;;;;16.17;100.00;101020.31;5018015;28;20364;-67
2021/06/06 08:15:59;;;;;;;;;;;;;;;16.19;100.00;101025.56;5018217;28;20266;-66
2021/06/06 08:18:44;;;;;;;;;;;;;;;16.22;100.00;101018.00;5033199;28;20312;-67
2021/06/06 08:21:32;;;;;;;;;;;;;;;16.31;100.00;101017.03;5004118;28;19985;-66
2021/06/06 08:24:16;;;;;;;;;;;;;;;16.44;100.00;101009.38;5018462;28;20066;-66
2021/06/06 08:27:00;;;;;;;;;;;;;;;16.57;100.00;101012.41;5033078;28;20068;-66
2021/06/06 08:29:44;;;;;;;;;;;;;;;16.75;100.00;101004.22;5016939;28;20063;-66
2021/06/06 08:32:28;;;;;;;;;;;;;;;16.82;100.00;101010.63;5017235;28;20020;-67
2021/06/06 08:35:12;;;;;;;;;;;;;;;16.88;100.00;101000.03;5032276;28;19919;-67
2021/06/06 08:37:56;;;;;;;;;;;;;;;16.99;100.00;101006.94;5017246;28;19959;-65
2021/06/06 08:40:51;;;;;;;;;;;;;;;17.06;100.00;101003.41;5032123;28;20364;-65
2021/06/06 08:43:54;;;;;;;;;;;;;;;17.10;100.00;101004.75;5032118;28;19924;-66
2021/06/06 08:46:43;;;;;;;;;;;;;;;17.13;100.00;101006.28;5032467;28;19919;-66
2021/06/06 08:49:28;;;;;;;;;;;;;;;17.18;100.00;101004.75;5017005;28;19971;-66
2021/06/06 08:52:17;;;;;;;;;;;;;;;17.24;100.00;101006.78;5016952;28;20024;-66
2021/06/06 08:55:09;;;;;;;;;;;;;;;17.20;100.00;101009.97;5017526;28;20373;-65
2021/06/06 08:58:02;;;;;;;;;;;;;;;17.16;100.00;100997.84;5016979;28;20006;-67
2021/06/06 09:00:46;;;;;;;;;;;;;;;17.26;100.00;101007.44;5016985;28;19936;-66
2021/06/06 09:03:30;;;;;;;;;;;;;;;17.38;100.00;101008.81;5017039;28;19920;-66
2021/06/06 09:06:16;;;;;;;;;;;;;;;17.42;100.00;101007.44;5003191;28;19920;-67
2021/06/06 09:09:00;;;;;;;;;;;;;;;17.57;100.00;101008.47;5017445;28;19920;-66
2021/06/06 09:11:44;;;;;;;;;;;;;;;17.62;100.00;101000.69;5017790;28;20030;-67
2021/06/06 09:14:28;;;;;;;;;;;;;;;17.72;100.00;101004.03;5032514;28;19920;-66
2021/06/06 09:17:16;;;;;;;;;;;;;;;17.82;100.00;101006.56;5017473;28;19920;-66
2021/06/06 09:20:01;;;;;;;;;;;;;;;17.90;100.00;101004.66;5017437;28;20023;-67
2021/06/06 09:22:44;;;;;;;;;;;;;;;17.94;100.00;101008.72;5018181;28;19959;-67
2021/06/06 09:25:34;;;;;;;;;;;;;;;17.97;100.00;101010.19;5035994;28;20277;-66
2021/06/06 09:28:22;;;;;;;;;;;;;;;17.98;100.00;101011.88;5021383;28;19982;-66
2021/06/06 09:31:26;;;;;;;;;;;;;;;17.97;100.00;101010.19;5006732;28;19932;-66
2021/06/06 09:34:09;;;;;;;;;;;;;;;17.97;100.00;101021.84;5036052;28;20353;-66
2021/06/06 09:37:02;;;;;;;;;;;;;;;17.82;100.00;101017.34;5008680;28;20235;-66
2021/06/06 09:39:46;;;;;;;;;;;;;;;17.76;100.00;101018.03;5006758;28;19986;-65
2021/06/06 09:42:33;;;;;;;;;;;;;;;17.78;100.00;101015.97;5021104;28;19971;-66
2021/06/06 09:45:26;;;;;;;;;;;;;;;17.86;100.00;101019.53;5035906;28;19920;-65
2021/06/06 09:48:18;;;;;;;;;;;;;;;17.84;100.00;101013.47;5035571;28;20331;-66
2021/06/06 09:51:10;;;;;;;;;;;;;;;17.55;100.00;101020.41;5021522;28;20403;-66
2021/06/06 09:53:57;;;;;;;;;;;;;;;17.55;100.00;101021.28;5035656;28;19931;-66
2021/06/06 09:56:42;;;;;;;;;;;;;;;17.54;100.00;101016.91;5021173;28;19920;-66
2021/06/06 09:59:27;;;;;;;;;;;;;;;17.63;100.00;101015.88;5006297;28;19920;-66
2021/06/06 10:02:11;;;;;;;;;;;;;;;17.69;100.00;101023.25;5035525;28;19967;-66
2021/06/06 10:05:06;;;;;;;;;;;;;;;17.69;100.00;101019.75;5020488;28;19975;-66
2021/06/06 10:08:08;;;;;;;;;;;;;;;17.68;100.00;101021.59;5006616;28;20055;-65
2021/06/06 10:10:54;;;;;;;;;;;;;;;17.65;100.00;101021.94;5035063;28;19924;-66
2021/06/06 10:13:39;;;;;;;;;;;;;;;17.61;100.00;101020.56;5020289;28;19951;-65
2021/06/06 10:16:28;;;;;;;;;;;;;;;17.66;100.00;101017.38;5020344;28;19936;-65
2021/06/06 10:19:16;;;;;;;;;;;;;;;17.76;100.00;101018.88;5006097;28;19943;-66
2021/06/06 10:22:02;;;;;;;;;;;;;;;17.74;100.00;101026.31;5020080;28;19955;-65
2021/06/06 10:24:57;;;;;;;;;;;;;;;17.71;100.00;101026.63;5019943;28;19920;-65
2021/06/06 10:27:49;;;;;;;;;;;;;;;17.70;100.00;101018.72;5020627;28;19920;-65
2021/06/06 10:30:35;;;;;;;;;;;;;;;17.72;100.00;101016.69;5019529;28;20008;-66
2021/06/06 10:33:25;;;;;;;;;;;;;;;17.77;100.00;101025.09;5020024;28;19920;-66
2021/06/06 10:36:09;;;;;;;;;;;;;;;17.90;100.00;101020.03;5033978;28;19919;-65
2021/06/06 10:38:53;;;;;;;;;;;;;;;17.79;100.00;101023.09;5019879;28;20023;-65
2021/06/06 10:41:41;;;;;;;;;;;;;;;17.89;100.00;101023.75;5019528;28;20007;-65
2021/06/06 10:44:28;;;;;;;;;;;;;;;17.89;100.00;101024.56;5005761;28;19932;-65
2021/06/06 10:47:17;;;;;;;;;;;;;;;17.71;100.00;101023.09;5019553;28;19920;-65
2021/06/06 10:50:05;;;;;;;;;;;;;;;17.76;100.00;101026.97;5005682;28;19967;-65
2021/06/06 10:52:49;;;;;;;;;;;;;;;17.93;100.00;101023.19;5019507;28;19920;-65
2021/06/06 10:55:34;;;;;;;;;;;;;;;17.94;100.00;101021.34;5019059;28;19987;-65
2021/06/06 10:58:19;;;;;;;;;;;;;;;18.12;100.00;101012.00;5019192;28;19941;-65
2021/06/06 11:01:21;;;;;;;;;;;;;;;18.15;100.00;101014.38;5019763;28;19920;-65
2021/06/06 11:04:10;;;;;;;;;;;;;;;18.35;100.00;101010.28;5006996;28;19946;-64
2021/06/06 11:07:08;;;;;;;;;;;;;;;18.31;100.00;101008.09;5019822;28;20328;-65
2021/06/06 11:10:10;;;;;;;;;;;;;;;18.34;100.00;101008.56;5019689;28;19923;-65
2021/06/06 11:12:55;;;;;;;;;;;;;;;18.38;100.00;100999.09;5034867;28;19959;-65
2021/06/06 11:15:54;;;;;;;;;;;;;;;18.65;100.00;101001.28;5019821;28;19920;-65
2021/06/06 11:18:53;;;;;;;;;;;;;;;18.87;100.00;100989.69;5019804;28;20325;-65
2021/06/06 11:21:40;;;;;;;;;;;;;;;19.34;100.00;100988.47;5006565;28;20315;-64
2021/06/06 11:24:27;;;;;;;;;;;;;;;19.62;100.00;100988.72;5019974;28;20044;-64
2021/06/06 11:27:10;;;;;;;;;;;;;;;19.80;100.00;100990.00;5005752;28;20011;-64
2021/06/06 11:29:56;;;;;;;;;;;;;;;19.54;100.00;100989.63;5033968;28;19992;-64
2021/06/06 11:32:39;;;;;;;;;;;;;;;19.34;100.00;100983.06;5034496;28;20030;-64
2021/06/06 11:35:29;;;;;;;;;;;;;;;19.52;100.00;100980.88;5019135;28;20047;-64
2021/06/06 11:38:27;;;;;;;;;;;;;;;19.48;100.00;100984.13;5019117;28;19963;-64
2021/06/06 11:41:16;;;;;;;;;;;;;;;19.52;100.00;100971.91;5034023;28;19975;-64
2021/06/06 11:44:00;;;;;;;;;;;;;;;19.06;100.00;100978.38;5034244;28;19967;-63
2021/06/06 11:46:50;;;;;;;;;;;;;;;18.96;100.00;100969.66;5034130;28;19921;-64
2021/06/06 11:49:53;;;;;;;;;;;;;;;19.83;100.00;100972.56;5019085;28;20034;-64
2021/06/06 11:52:38;;;;;;;;;;;;;;;20.71;97.59;100966.03;5019433;28;20405;-64
2021/06/06 11:55:29;;;;;;;;;;;;;;;21.84;93.87;100962.00;5019177;28;19920;-64
2021/06/06 11:58:21;;;;;;;;;;;;;;;22.43;84.64;100962.31;5019488;28;19963;-64
2021/06/06 12:01:24;;;;;;;;;;;;;;;23.12;86.13;100959.09;5019021;28;19931;-64
2021/06/06 12:04:09;;;;;;;;;;;;;;;23.73;78.31;100960.56;5005125;28;19936;-64
2021/06/06 12:06:53;;;;;;;;;;;;;;;22.91;79.51;100951.13;5004808;28;19920;-64
2021/06/06 12:09:38;;;;;;;;;;;;;;;23.51;78.35;100950.97;5033703;28;20010;-65
2021/06/06 12:12:29;;;;;;;;;;;;;;;23.52;76.76;100944.47;5033574;28;19943;-65
2021/06/06 12:15:20;;;;;;;;;;;;;;;24.26;74.23;100948.47;5004784;28;19920;-65
2021/06/06 12:18:07;;;;;;;;;;;;;;;24.50;73.40;100940.38;5033560;28;19920;-64
2021/06/06 12:20:59;;;;;;;;;;;;;;;25.74;68.04;100940.28;5033964;28;19919;-64
2021/06/06 12:23:44;;;;;;;;;;;;;;;24.50;69.99;100937.66;5018846;28;19952;-65
2021/06/06 12:26:29;;;;;;;;;;;;;;;25.02;72.00;100931.88;5033668;28;20281;-64
2021/06/06 12:29:13;;;;;;;;;;;;;;;25.25;70.92;100931.31;5033459;28;19967;-65
2021/06/06 12:32:04;;;;;;;;;;;;;;;24.82;75.17;100931.19;5018763;28;19962;-65
2021/06/06 12:34:48;;;;;;;;;;;;;;;26.01;67.26;100924.44;5018726;28;20377;-65
2021/06/06 12:37:32;;;;;;;;;;;;;;;25.31;65.38;100927.72;5018525;28;19970;-65
2021/06/06 12:40:16;;;;;;;;;;;;;;;25.24;67.92;100926.91;5018364;28;20006;-64
2021/06/06 12:43:01;;;;;;;;;;;;;;;24.82;68.43;100930.38;5018900;28;19920;-64
2021/06/06 12:45:45;;;;;;;;;;;;;;;24.20;72.04;100924.81;5004778;28;19920;-65
2021/06/06 12:48:34;;;;;;;;;;;;;;;24.00;72.05;100939.56;5018362;28;20320;-65
2021/06/06 12:51:22;;;;;;;;;;;;;;;22.94;79.14;100934.38;5018153;28;20293;-64
2021/06/06 12:54:07;;;;;;;;;;;;;;;22.71;80.85;100936.66;5018526;28;19923;-65
2021/06/06 12:56:52;;;;;;;;;;;;;;;22.24;83.94;100939.44;5018266;28;20396;-64
2021/06/06 12:59:36;;;;;;;;;;;;;;;21.78;85.35;100946.50;5021730;28;20393;-64
2021/06/06 13:02:21;;;;;;;;;;;;;;;21.69;89.36;100944.19;5022293;28;19920;-64
2021/06/06 13:05:09;;;;;;;;;;;;;;;21.50;88.75;100940.25;5021958;28;19919;-65
2021/06/06 13:07:54;;;;;;;;;;;;;;;21.04;91.62;100945.53;5008658;28;19920;-64
2021/06/06 13:10:41;;;;;;;;;;;;;;;20.99;93.35;100940.69;5036692;28;19971;-65
2021/06/06 13:13:46;;;;;;;;;;;;;;;20.74;93.69;100941.22;5008068;28;20372;-65
2021/06/06 13:16:34;;;;;;;;;;;;;;;20.65;96.90;100942.38;5037047;28;19919;-65
2021/06/06 13:19:20;;;;;;;;;;;;;;;20.77;95.39;100940.84;5021938;28;20010;-66
2021/06/06 13:22:08;;;;;;;;;;;;;;;20.91;95.88;100934.56;5021987;28;19920;-66
2021/06/06 13:24:55;;;;;;;;;;;;;;;21.22;98.86;100935.03;5036855;28;19936;-65
2021/06/06 13:27:40;;;;;;;;;;;;;;;21.05;96.26;100928.22;5022132;28;20373;-65
2021/06/06 13:30:23;;;;;;;;;;;;;;;21.10;96.01;100936.59;5021313;28;19967;-66
2021/06/06 13:33:09;;;;;;;;;;;;;;;20.98;96.26;100939.00;5036732;28;19963;-65
2021/06/06 13:35:53;;;;;;;;;;;;;;;20.89;97.53;100939.31;5021699;28;20006;-65
2021/06/06 13:38:37;;;;;;;;;;;;;;;20.81;99.94;100937.53;5008079;28;19920;-65
2021/06/06 13:41:21;;;;;;;;;;;;;;;20.88;100.00;100937.63;5021244;28;19919;-65
2021/06/06 13:44:05;;;;;;;;;;;;;;;21.10;98.70;100932.00;5036234;28;19958;-66
2021/06/06 13:46:49;;;;;;;;;;;;;;;21.12;96.30;100934.53;5021478;28;19964;-65
2021/06/06 13:49:33;;;;;;;;;;;;;;;20.96;96.12;100935.66;5021311;28;20016;-65
2021/06/06 13:52:16;;;;;;;;;;;;;;;21.08;95.13;100946.78;5021377;28;19920;-66
2021/06/06 13:55:00;;;;;;;;;;;;;;;21.11;96.01;100940.97;5021078;28;19966;-65
2021/06/06 13:57:44;;;;;;;;;;;;;;;21.22;93.92;100937.75;5021330;28;20304;-66
2021/06/06 14:00:29;;;;;;;;;;;;;;;21.31;96.78;100946.38;5021664;28;20043;-65
2021/06/06 14:03:14;;;;;;;;;;;;;;;21.33;94.01;100948.88;5020911;28;20010;-66
2021/06/06 14:05:58;;;;;;;;;;;;;;;21.27;94.80;100945.09;5020893;28;19920;-65